Terminal Aerodrome Forecast
Issued by NWS

Home | Current Version | Previous Version | Text Only | Print | Product List | Glossary On
Versions: 1 2 3 4 5 6 7 8 9 10 11 12 13 14
000
FTUS43 KDDC 030000 CCA
TAFHYS
TAF COR
KHYS 030000Z 0300/0324 04005KT P6SM OVC090
     FM030900 09005KT P6SM OVC015
     FM031600 14007KT P6SM OVC008=

USA.gov is the U.S. government's official web portal to all federal, state and local government web resources and services.